sensor_id;sensor_type;location;lat;lon;timestamp;pressure;altitude;pressure_sealevel;temperature;humidity
12759;BME280;20944;47.048;15.390;2023-04-07T00:01:55;97485.16;;;3.74;54.16
12759;BME280;20944;47.048;15.390;2023-04-07T00:04:24;97453.28;;;3.54;53.61
12759;BME280;20944;47.048;15.390;2023-04-07T00:06:52;97478.25;;;3.70;53.98
12759;BME280;20944;47.048;15.390;2023-04-07T00:09:20;97483.44;;;3.70;53.84
12759;BME280;20944;47.048;15.390;2023-04-07T00:11:48;97492.94;;;3.77;53.98
12759;BME280;20944;47.048;15.390;2023-04-07T00:14:18;97486.88;;;3.78;54.35
12759;BME280;20944;47.048;15.390;2023-04-07T00:16:47;97463.59;;;3.66;54.04
12759;BME280;20944;47.048;15.390;2023-04-07T00:19:15;97042.66;;;1.06;54.13
12759;BME280;20944;47.048;15.390;2023-04-07T00:21:43;97463.63;;;3.57;54.61
12759;BME280;20944;47.048;15.390;2023-04-07T00:24:11;97474.78;;;3.76;54.34
12759;BME280;20944;47.048;15.390;2023-04-07T00:26:52;97475.69;;;3.66;54.48
12759;BME280;20944;47.048;15.390;2023-04-07T00:29:23;97435.19;;;3.42;54.95
12759;BME280;20944;47.048;15.390;2023-04-07T00:31:52;97472.25;;;3.67;54.94
12759;BME280;20944;47.048;15.390;2023-04-07T00:34:20;97473.94;;;3.74;55.02
12759;BME280;20944;47.048;15.390;2023-04-07T00:36:48;97404.16;;;3.27;54.76
12759;BME280;20944;47.048;15.390;2023-04-07T00:39:18;97466.16;;;3.78;54.73
12759;BME280;20944;47.048;15.390;2023-04-07T00:41:47;97466.19;;;3.68;55.55
12759;BME280;20944;47.048;15.390;2023-04-07T00:44:15;97429.16;;;3.41;55.75
12759;BME280;20944;47.048;15.390;2023-04-07T00:46:46;97468.81;;;3.54;55.77
12759;BME280;20944;47.048;15.390;2023-04-07T00:49:14;97466.25;;;3.45;56.23
12759;BME280;20944;47.048;15.390;2023-04-07T00:51:44;97459.34;;;3.38;55.74
12759;BME280;20944;47.048;15.390;2023-04-07T00:54:14;97464.56;;;3.25;55.81
12759;BME280;20944;47.048;15.390;2023-04-07T00:56:42;97461.97;;;3.25;56.27
12759;BME280;20944;47.048;15.390;2023-04-07T00:59:10;97441.28;;;3.13;56.24
12759;BME280;20944;47.048;15.390;2023-04-07T01:01:43;97436.13;;;3.16;55.81
12759;BME280;20944;47.048;15.390;2023-04-07T01:04:21;97460.28;;;3.21;56.82
12759;BME280;20944;47.048;15.390;2023-04-07T01:06:54;97436.09;;;3.18;56.23
12759;BME280;20944;47.048;15.390;2023-04-07T01:09:26;97461.13;;;3.13;56.35
12759;BME280;20944;47.048;15.390;2023-04-07T01:12:04;97455.97;;;3.05;57.42
12759;BME280;20944;47.048;15.390;2023-04-07T01:14:36;97359.44;;;2.39;57.49
12759;BME280;20944;47.048;15.390;2023-04-07T01:17:09;97459.41;;;2.95;58.07
12759;BME280;20944;47.048;15.390;2023-04-07T01:19:43;97455.97;;;3.02;57.73
12759;BME280;20944;47.048;15.390;2023-04-07T01:22:17;97379.28;;;2.52;57.49
12759;BME280;20944;47.048;15.390;2023-04-07T01:25:06;97423.22;;;2.77;57.80
12759;BME280;20944;47.048;15.390;2023-04-07T01:27:47;97445.63;;;2.97;58.31
12759;BME280;20944;47.048;15.390;2023-04-07T01:30:18;97415.44;;;2.93;58.13
12759;BME280;20944;47.048;15.390;2023-04-07T01:32:51;97327.56;;;2.28;57.91
12759;BME280;20944;47.048;15.390;2023-04-07T01:35:21;97319.78;;;2.26;57.64
12759;BME280;20944;47.048;15.390;2023-04-07T01:37:51;97379.28;;;2.58;58.21
12759;BME280;20944;47.048;15.390;2023-04-07T01:40:20;97424.91;;;2.93;58.07
12759;BME280;20944;47.048;15.390;2023-04-07T01:42:50;97444.75;;;3.05;58.21
12759;BME280;20944;47.048;15.390;2023-04-07T01:45:21;97447.34;;;3.03;59.04
12759;BME280;20944;47.048;15.390;2023-04-07T01:47:49;97441.31;;;3.00;58.02
12759;BME280;20944;47.048;15.390;2023-04-07T01:50:19;97441.31;;;2.93;58.52
12759;BME280;20944;47.048;15.390;2023-04-07T01:52:48;97435.28;;;2.87;57.75
12759;BME280;20944;47.048;15.390;2023-04-07T01:55:17;97404.25;;;2.41;59.08
12759;BME280;20944;47.048;15.390;2023-04-07T01:57:45;97430.97;;;2.61;59.29
12759;BME280;20944;47.048;15.390;2023-04-07T02:00:13;97434.44;;;2.65;59.83
12759;BME280;20944;47.048;15.390;2023-04-07T02:02:44;97425.81;;;2.67;60.09
12759;BME280;20944;47.048;15.390;2023-04-07T02:05:17;97430.09;;;2.68;59.83
12759;BME280;20944;47.048;15.390;2023-04-07T02:07:49;97433.56;;;2.70;59.52
12759;BME280;20944;47.048;15.390;2023-04-07T02:10:21;97432.72;;;2.72;59.69
12759;BME280;20944;47.048;15.390;2023-04-07T02:12:50;97410.28;;;2.60;59.47
12759;BME280;20944;47.048;15.390;2023-04-07T02:15:20;97393.91;;;2.44;59.30
12759;BME280;20944;47.048;15.390;2023-04-07T02:17:52;97370.63;;;2.20;59.91
12759;BME280;20944;47.048;15.390;2023-04-07T02:20:23;96988.38;;;-0.11;60.41
12759;BME280;20944;47.048;15.390;2023-04-07T02:22:51;97424.94;;;2.65;60.56
12759;BME280;20944;47.048;15.390;2023-04-07T02:25:23;97401.69;;;2.58;60.08
12759;BME280;20944;47.048;15.390;2023-04-07T02:27:52;97434.41;;;2.69;59.97
12759;BME280;20944;47.048;15.390;2023-04-07T02:30:21;97418.03;;;2.37;60.24
12759;BME280;20944;47.048;15.390;2023-04-07T02:32:51;97445.59;;;2.44;60.97
12759;BME280;20944;47.048;15.390;2023-04-07T02:35:20;97434.41;;;2.39;61.08
12759;BME280;20944;47.048;15.390;2023-04-07T02:37:48;97431.84;;;2.48;60.23
12759;BME280;20944;47.048;15.390;2023-04-07T02:40:16;97409.41;;;2.32;60.54
12759;BME280;20944;47.048;15.390;2023-04-07T02:42:45;97433.56;;;2.52;60.07
12759;BME280;20944;47.048;15.390;2023-04-07T02:45:13;97426.66;;;2.39;60.95
12759;BME280;20944;47.048;15.390;2023-04-07T02:47:42;97410.28;;;2.35;60.80
12759;BME280;20944;47.048;15.390;2023-04-07T02:50:11;97433.56;;;2.46;61.94
12759;BME280;20944;47.048;15.390;2023-04-07T02:52:40;97442.16;;;2.48;61.99
12759;BME280;20944;47.048;15.390;2023-04-07T02:55:09;97432.72;;;2.52;62.03
12759;BME280;20944;47.048;15.390;2023-04-07T02:57:37;97422.38;;;2.58;61.34
12759;BME280;20944;47.048;15.390;2023-04-07T03:00:06;97324.97;;;2.03;60.79
12759;BME280;20944;47.048;15.390;2023-04-07T03:02:35;97418.91;;;2.59;61.24
12759;BME280;20944;47.048;15.390;2023-04-07T03:05:03;97408.56;;;2.56;61.04
12759;BME280;20944;47.048;15.390;2023-04-07T03:07:33;97414.59;;;2.56;61.32
12759;BME280;20944;47.048;15.390;2023-04-07T03:10:01;97411.16;;;2.60;61.42
12759;BME280;20944;47.048;15.390;2023-04-07T03:12:30;97392.19;;;2.58;60.75
12759;BME280;20944;47.048;15.390;2023-04-07T03:14:58;97418.06;;;2.77;61.42
12759;BME280;20944;47.048;15.390;2023-04-07T03:17:26;97412.84;;;2.89;61.10
12759;BME280;20944;47.048;15.390;2023-04-07T03:19:55;97412.88;;;2.80;60.96
12759;BME280;20944;47.048;15.390;2023-04-07T03:22:23;97381.84;;;2.58;61.13
12759;BME280;20944;47.048;15.390;2023-04-07T03:24:53;97399.94;;;2.58;61.24
12759;BME280;20944;47.048;15.390;2023-04-07T03:27:21;97393.91;;;2.65;61.58
12759;BME280;20944;47.048;15.390;2023-04-07T03:29:49;97361.16;;;2.54;61.04
12759;BME280;20944;47.048;15.390;2023-04-07T03:32:17;97311.19;;;2.35;61.44
12759;BME280;20944;47.048;15.390;2023-04-07T03:34:46;97393.03;;;2.85;61.89
12759;BME280;20944;47.048;15.390;2023-04-07T03:37:14;97393.88;;;2.82;61.79
12759;BME280;20944;47.048;15.390;2023-04-07T03:39:42;97362.88;;;2.67;61.95
12759;BME280;20944;47.048;15.390;2023-04-07T03:42:12;97392.16;;;2.80;61.55
12759;BME280;20944;47.048;15.390;2023-04-07T03:44:40;97393.03;;;2.73;61.31
12759;BME280;20944;47.048;15.390;2023-04-07T03:47:08;97381.81;;;2.74;61.51
12759;BME280;20944;47.048;15.390;2023-04-07T03:49:36;97344.78;;;2.47;61.38
12759;BME280;20944;47.048;15.390;2023-04-07T03:52:05;97388.72;;;2.75;61.89
12759;BME280;20944;47.048;15.390;2023-04-07T03:54:33;97385.28;;;2.83;62.00
12759;BME280;20944;47.048;15.390;2023-04-07T03:57:02;97381.78;;;2.89;61.75
12759;BME280;20944;47.048;15.390;2023-04-07T03:59:32;97390.44;;;2.85;61.99
12759;BME280;20944;47.048;15.390;2023-04-07T04:02:00;97388.72;;;2.90;62.02
12759;BME280;20944;47.048;15.390;2023-04-07T04:04:28;97382.69;;;2.79;62.32
12759;BME280;20944;47.048;15.390;2023-04-07T04:06:56;97402.53;;;2.80;62.65
12759;BME280;20944;47.048;15.390;2023-04-07T04:09:24;97383.56;;;2.84;62.28
12759;BME280;20944;47.048;15.390;2023-04-07T04:11:53;97384.38;;;2.95;62.26
12759;BME280;20944;47.048;15.390;2023-04-07T04:14:22;97391.28;;;2.93;62.30
12759;BME280;20944;47.048;15.390;2023-04-07T04:16:52;97393.91;;;2.84;63.10
12759;BME280;20944;47.048;15.390;2023-04-07T04:19:20;97393.91;;;2.78;64.02
12759;BME280;20944;47.048;15.390;2023-04-07T04:21:48;97401.66;;;2.73;63.61
12759;BME280;20944;47.048;15.390;2023-04-07T04:24:17;97400.78;;;2.76;63.14
12759;BME280;20944;47.048;15.390;2023-04-07T04:26:45;97259.53;;;1.95;62.46
12759;BME280;20944;47.048;15.390;2023-04-07T04:29:14;97218.19;;;1.58;62.79
12759;BME280;20944;47.048;15.390;2023-04-07T04:31:42;97398.19;;;2.57;63.50
12759;BME280;20944;47.048;15.390;2023-04-07T04:34:12;97369.75;;;2.45;63.09
12759;BME280;20944;47.048;15.390;2023-04-07T04:36:40;97380.09;;;2.57;62.34
12759;BME280;20944;47.048;15.390;2023-04-07T04:39:08;97407.69;;;2.69;61.85
12759;BME280;20944;47.048;15.390;2023-04-07T04:41:36;97402.53;;;2.61;63.79
12759;BME280;20944;47.048;15.390;2023-04-07T04:44:04;97399.94;;;2.69;63.50
12759;BME280;20944;47.048;15.390;2023-04-07T04:46:33;97409.44;;;2.72;63.26
12759;BME280;20944;47.048;15.390;2023-04-07T04:49:01;97397.31;;;2.83;62.73
12759;BME280;20944;47.048;15.390;2023-04-07T04:51:31;97380.09;;;2.74;62.38
12759;BME280;20944;47.048;15.390;2023-04-07T04:53:59;97400.81;;;2.77;63.12
12759;BME280;20944;47.048;15.390;2023-04-07T04:56:29;97378.41;;;2.65;63.63
12759;BME280;20944;47.048;15.390;2023-04-07T04:58:57;97403.34;;;2.98;62.83
12759;BME280;20944;47.048;15.390;2023-04-07T05:01:26;97404.22;;;3.02;61.74
12759;BME280;20944;47.048;15.390;2023-04-07T05:03:55;97401.63;;;2.99;61.06
12759;BME280;20944;47.048;15.390;2023-04-07T05:06:24;97398.16;;;3.00;62.13
12759;BME280;20944;47.048;15.390;2023-04-07T05:08:54;97393.91;;;2.90;62.60
12759;BME280;20944;47.048;15.390;2023-04-07T05:11:22;97398.16;;;3.06;63.11
12759;BME280;20944;47.048;15.390;2023-04-07T05:13:51;97396.44;;;3.08;63.18
12759;BME280;20944;47.048;15.390;2023-04-07T05:16:19;97405.91;;;3.15;62.58
12759;BME280;20944;47.048;15.390;2023-04-07T05:18:48;97375.75;;;2.93;62.21
12759;BME280;20944;47.048;15.390;2023-04-07T05:21:16;97373.16;;;2.99;61.62
12759;BME280;20944;47.048;15.390;2023-04-07T05:23:45;97405.00;;;3.33;61.04
12759;BME280;20944;47.048;15.390;2023-04-07T05:26:15;97392.94;;;3.26;60.83
12759;BME280;20944;47.048;15.390;2023-04-07T05:28:43;97416.19;;;3.41;59.24
12759;BME280;20944;47.048;15.390;2023-04-07T05:31:11;97412.75;;;3.38;59.42
12759;BME280;20944;47.048;15.390;2023-04-07T05:33:40;97410.13;;;3.48;58.93
12759;BME280;20944;47.048;15.390;2023-04-07T05:36:08;97412.66;;;3.64;59.07
12759;BME280;20944;47.048;15.390;2023-04-07T05:38:36;97410.94;;;3.66;59.41
12759;BME280;20944;47.048;15.390;2023-04-07T05:41:05;97416.97;;;3.71;60.54
12759;BME280;20944;47.048;15.390;2023-04-07T05:43:34;97417.78;;;3.79;61.89
12759;BME280;20944;47.048;15.390;2023-04-07T05:46:02;97414.25;;;3.89;60.50
12759;BME280;20944;47.048;15.390;2023-04-07T05:48:31;97407.31;;;3.99;59.71
12759;BME280;20944;47.048;15.390;2023-04-07T05:50:59;97399.47;;;4.06;59.50
12759;BME280;20944;47.048;15.390;2023-04-07T05:53:27;97412.41;;;4.17;58.49
12759;BME280;20944;47.048;15.390;2023-04-07T05:55:55;97411.56;;;4.12;57.90
12759;BME280;20944;47.048;15.390;2023-04-07T05:58:23;97408.94;;;4.18;58.13
12759;BME280;20944;47.048;15.390;2023-04-07T06:00:53;97416.72;;;4.14;58.64
12759;BME280;20944;47.048;15.390;2023-04-07T06:03:21;97403.72;;;4.20;58.22
12759;BME280;20944;47.048;15.390;2023-04-07T06:05:50;97401.09;;;4.24;58.71
12759;BME280;20944;47.048;15.390;2023-04-07T06:08:18;97404.50;;;4.32;57.86
12759;BME280;20944;47.048;15.390;2023-04-07T06:10:46;97408.81;;;4.33;58.28
12759;BME280;20944;47.048;15.390;2023-04-07T06:13:14;97404.44;;;4.43;58.92
12759;BME280;20944;47.048;15.390;2023-04-07T06:15:42;97406.00;;;4.63;58.11
12759;BME280;20944;47.048;15.390;2023-04-07T06:18:12;97392.22;;;4.57;57.86
12759;BME280;20944;47.048;15.390;2023-04-07T06:20:40;97380.13;;;4.56;59.69
12759;BME280;20944;47.048;15.390;2023-04-07T06:23:08;97415.34;;;4.83;59.99
12759;BME280;20944;47.048;15.390;2023-04-07T06:25:37;97411.88;;;4.87;60.00
12759;BME280;20944;47.048;15.390;2023-04-07T06:28:05;97381.59;;;4.86;58.98
12759;BME280;20944;47.048;15.390;2023-04-07T06:30:33;97405.44;;;5.25;57.48
12759;BME280;20944;47.048;15.390;2023-04-07T06:33:02;97401.66;;;5.52;58.30
12759;BME280;20944;47.048;15.390;2023-04-07T06:35:31;97402.28;;;5.74;56.79
12759;BME280;20944;47.048;15.390;2023-04-07T06:37:59;97393.41;;;5.93;53.86
12759;BME280;20944;47.048;15.390;2023-04-07T06:40:28;97389.59;;;6.16;53.07
12759;BME280;20944;47.048;15.390;2023-04-07T06:42:56;97392.16;;;6.20;54.15
12759;BME280;20944;47.048;15.390;2023-04-07T06:45:24;97373.88;;;6.25;53.75
12759;BME280;20944;47.048;15.390;2023-04-07T06:47:52;97374.50;;;6.42;52.71
12759;BME280;20944;47.048;15.390;2023-04-07T06:50:20;97336.50;;;6.31;52.80
12759;BME280;20944;47.048;15.390;2023-04-07T06:52:50;97374.09;;;6.65;51.75
12759;BME280;20944;47.048;15.390;2023-04-07T06:55:18;97342.75;;;6.73;50.70
12759;BME280;20944;47.048;15.390;2023-04-07T06:57:47;97387.94;;;7.20;49.87
12759;BME280;20944;47.048;15.390;2023-04-07T07:00:16;97356.75;;;7.15;50.24
12759;BME280;20944;47.048;15.390;2023-04-07T07:02:45;97385.91;;;7.34;49.40
12759;BME280;20944;47.048;15.390;2023-04-07T07:05:13;97392.72;;;7.41;49.27
12759;BME280;20944;47.048;15.390;2023-04-07T07:07:41;97374.47;;;7.43;49.79
12759;BME280;20944;47.048;15.390;2023-04-07T07:10:11;97354.19;;;7.57;49.73
12759;BME280;20944;47.048;15.390;2023-04-07T07:12:39;97364.13;;;7.81;47.56
12759;BME280;20944;47.048;15.390;2023-04-07T07:15:08;97388.19;;;7.94;46.52
12759;BME280;20944;47.048;15.390;2023-04-07T07:17:36;97391.66;;;7.95;47.02
12759;BME280;20944;47.048;15.390;2023-04-07T07:20:06;97388.13;;;7.97;45.64
12759;BME280;20944;47.048;15.390;2023-04-07T07:22:34;97392.34;;;8.03;46.93
12759;BME280;20944;47.048;15.390;2023-04-07T07:25:03;97374.84;;;8.08;47.08
12759;BME280;20944;47.048;15.390;2023-04-07T07:27:33;97386.19;;;8.46;46.92
12759;BME280;20944;47.048;15.390;2023-04-07T07:30:01;97388.75;;;8.84;47.01
12759;BME280;20944;47.048;15.390;2023-04-07T07:32:30;97357.34;;;8.87;45.11
12759;BME280;20944;47.048;15.390;2023-04-07T07:34:58;97382.84;;;9.12;45.07
12759;BME280;20944;47.048;15.390;2023-04-07T07:37:26;97382.31;;;9.32;45.40
12759;BME280;20944;47.048;15.390;2023-04-07T07:39:55;97357.59;;;9.42;45.38
12759;BME280;20944;47.048;15.390;2023-04-07T07:42:23;97347.72;;;9.53;45.12
12759;BME280;20944;47.048;15.390;2023-04-07T07:44:53;97359.50;;;9.68;43.47
12759;BME280;20944;47.048;15.390;2023-04-07T07:47:21;97371.06;;;9.90;43.46
12759;BME280;20944;47.048;15.390;2023-04-07T07:49:50;97343.25;;;9.86;43.44
12759;BME280;20944;47.048;15.390;2023-04-07T07:52:18;97344.31;;;9.81;43.39
12759;BME280;20944;47.048;15.390;2023-04-07T07:54:47;97362.47;;;9.85;43.74
12759;BME280;20944;47.048;15.390;2023-04-07T07:57:15;97328.88;;;9.71;44.26
12759;BME280;20944;47.048;15.390;2023-04-07T07:59:43;97364.38;;;10.10;43.14
12759;BME280;20944;47.048;15.390;2023-04-07T08:02:13;97363.00;;;10.27;42.06
12759;BME280;20944;47.048;15.390;2023-04-07T08:04:42;97278.13;;;10.05;41.83
12759;BME280;20944;47.048;15.390;2023-04-07T08:07:10;97364.13;;;10.75;40.26
12759;BME280;20944;47.048;15.390;2023-04-07T08:09:38;97358.16;;;10.96;41.01
12759;BME280;20944;47.048;15.390;2023-04-07T08:12:07;97336.06;;;11.03;40.00
12759;BME280;20944;47.048;15.390;2023-04-07T08:14:35;97352.56;;;11.30;34.33
12759;BME280;20944;47.048;15.390;2023-04-07T08:17:03;97358.03;;;11.24;36.03
12759;BME280;20944;47.048;15.390;2023-04-07T08:19:33;97333.28;;;11.33;36.50
12759;BME280;20944;47.048;15.390;2023-04-07T08:22:01;97353.78;;;11.70;35.92
12759;BME280;20944;47.048;15.390;2023-04-07T08:24:29;97345.03;;;11.95;35.10
12759;BME280;20944;47.048;15.390;2023-04-07T08:26:57;97324.75;;;11.98;33.73
12759;BME280;20944;47.048;15.390;2023-04-07T08:29:27;97338.75;;;11.99;35.84
12759;BME280;20944;47.048;15.390;2023-04-07T08:31:56;97334.63;;;11.92;36.03
12759;BME280;20944;47.048;15.390;2023-04-07T08:34:25;97328.38;;;11.96;32.41
12759;BME280;20944;47.048;15.390;2023-04-07T08:36:54;97333.88;;;12.11;32.44
12759;BME280;20944;47.048;15.390;2023-04-07T08:39:23;97328.44;;;12.16;33.02
12759;BME280;20944;47.048;15.390;2023-04-07T08:41:53;97326.63;;;12.40;33.10
12759;BME280;20944;47.048;15.390;2023-04-07T08:44:24;97228.53;;;11.97;33.73
12759;BME280;20944;47.048;15.390;2023-04-07T08:46:56;97303.41;;;12.29;32.32
12759;BME280;20944;47.048;15.390;2023-04-07T08:49:27;97319.66;;;12.17;31.93
12759;BME280;20944;47.048;15.390;2023-04-07T08:51:59;97322.19;;;11.97;32.98
12759;BME280;20944;47.048;15.390;2023-04-07T08:54:30;97310.38;;;11.85;32.26
12759;BME280;20944;47.048;15.390;2023-04-07T08:56:59;97311.06;;;11.90;33.87
12759;BME280;20944;47.048;15.390;2023-04-07T08:59:30;97305.84;;;12.12;34.21
12759;BME280;20944;47.048;15.390;2023-04-07T09:01:59;97306.56;;;12.37;34.66
12759;BME280;20944;47.048;15.390;2023-04-07T09:04:28;97305.63;;;12.40;31.82
12759;BME280;20944;47.048;15.390;2023-04-07T09:06:58;97302.34;;;12.11;32.52
12759;BME280;20944;47.048;15.390;2023-04-07T09:09:28;97311.09;;;12.12;31.65
12759;BME280;20944;47.048;15.390;2023-04-07T09:11:56;97303.88;;;12.17;32.28
12759;BME280;20944;47.048;15.390;2023-04-07T09:14:25;97305.59;;;12.18;33.17
12759;BME280;20944;47.048;15.390;2023-04-07T09:16:54;97286.25;;;11.52;31.35
12759;BME280;20944;47.048;15.390;2023-04-07T09:19:25;97303.00;;;11.48;33.57
12759;BME280;20944;47.048;15.390;2023-04-07T09:21:53;97308.72;;;11.59;32.18
12759;BME280;20944;47.048;15.390;2023-04-07T09:24:23;97186.25;;;10.89;32.32
12759;BME280;20944;47.048;15.390;2023-04-07T09:27:10;97310.13;;;11.68;32.86
12759;BME280;20944;47.048;15.390;2023-04-07T09:29:43;97312.59;;;11.72;31.78
12759;BME280;20944;47.048;15.390;2023-04-07T09:32:11;97142.34;;;10.96;33.67
12759;BME280;20944;47.048;15.390;2023-04-07T09:34:40;97297.78;;;12.17;32.40
12759;BME280;20944;47.048;15.390;2023-04-07T09:37:20;97289.91;;;12.38;30.94
12759;BME280;20944;47.048;15.390;2023-04-07T09:39:51;97292.91;;;12.29;31.89
12759;BME280;20944;47.048;15.390;2023-04-07T09:42:20;97267.00;;;11.98;33.06
12759;BME280;20944;47.048;15.390;2023-04-07T09:44:48;97294.47;;;12.11;31.24
12759;BME280;20944;47.048;15.390;2023-04-07T09:47:16;97291.69;;;12.16;32.23
12759;BME280;20944;47.048;15.390;2023-04-07T09:49:48;97282.38;;;12.29;32.13
12759;BME280;20944;47.048;15.390;2023-04-07T09:52:24;97285.00;;;12.29;30.65
12759;BME280;20944;47.048;15.390;2023-04-07T09:54:54;97284.09;;;12.08;29.73
12759;BME280;20944;47.048;15.390;2023-04-07T09:57:23;97283.66;;;11.97;29.89
12759;BME280;20944;47.048;15.390;2023-04-07T09:59:52;97286.97;;;12.02;31.34
12759;BME280;20944;47.048;15.390;2023-04-07T10:02:22;97258.50;;;11.92;30.77
12759;BME280;20944;47.048;15.390;2023-04-07T10:04:52;97265.22;;;11.99;29.13
12759;BME280;20944;47.048;15.390;2023-04-07T10:07:20;97276.03;;;12.13;30.41
12759;BME280;20944;47.048;15.390;2023-04-07T10:09:49;97269.38;;;12.26;28.99
12759;BME280;20944;47.048;15.390;2023-04-07T10:12:18;97276.34;;;12.27;29.85
12759;BME280;20944;47.048;15.390;2023-04-07T10:14:47;97238.75;;;12.25;28.72
12759;BME280;20944;47.048;15.390;2023-04-07T10:17:16;97260.19;;;12.36;28.33
12759;BME280;20944;47.048;15.390;2023-04-07T10:19:47;97253.72;;;12.45;29.67
12759;BME280;20944;47.048;15.390;2023-04-07T10:22:17;97249.91;;;12.52;29.22
12759;BME280;20944;47.048;15.390;2023-04-07T10:24:53;97244.78;;;12.69;28.13
12759;BME280;20944;47.048;15.390;2023-04-07T10:27:29;97242.63;;;13.00;29.23
12759;BME280;20944;47.048;15.390;2023-04-07T10:29:59;97221.69;;;13.17;28.85
12759;BME280;20944;47.048;15.390;2023-04-07T10:32:29;97235.69;;;13.38;28.63
12759;BME280;20944;47.048;15.390;2023-04-07T10:34:58;97235.63;;;13.39;29.47
12759;BME280;20944;47.048;15.390;2023-04-07T10:37:27;97242.16;;;13.49;27.47
12759;BME280;20944;47.048;15.390;2023-04-07T10:40:26;97228.66;;;13.57;28.10
12759;BME280;20944;47.048;15.390;2023-04-07T10:42:57;97222.47;;;13.77;28.68
12759;BME280;20944;47.048;15.390;2023-04-07T10:45:54;97222.66;;;14.10;29.04
12759;BME280;20944;47.048;15.390;2023-04-07T10:48:29;97186.44;;;13.96;29.13
12759;BME280;20944;47.048;15.390;2023-04-07T10:51:15;97202.88;;;14.19;29.55
12759;BME280;20944;47.048;15.390;2023-04-07T10:54:14;97218.19;;;14.29;25.35
12759;BME280;20944;47.048;15.390;2023-04-07T10:57:09;97210.53;;;14.06;27.30
12759;BME280;20944;47.048;15.390;2023-04-07T10:59:41;97192.09;;;14.06;27.33
12759;BME280;20944;47.048;15.390;2023-04-07T11:02:32;97207.16;;;14.39;25.34
12759;BME280;20944;47.048;15.390;2023-04-07T11:05:01;97154.91;;;14.12;26.20
12759;BME280;20944;47.048;15.390;2023-04-07T11:07:44;97211.09;;;14.66;28.54
12759;BME280;20944;47.048;15.390;2023-04-07T11:10:13;97151.47;;;14.46;26.71
12759;BME280;20944;47.048;15.390;2023-04-07T11:12:42;97198.72;;;15.01;26.90
12759;BME280;20944;47.048;15.390;2023-04-07T11:15:19;97198.34;;;15.09;25.55
12759;BME280;20944;47.048;15.390;2023-04-07T11:18:15;97186.84;;;15.10;24.79
12759;BME280;20944;47.048;15.390;2023-04-07T11:20:49;97188.34;;;15.14;24.71
12759;BME280;20944;47.048;15.390;2023-04-07T11:23:19;97178.56;;;14.83;23.89
12759;BME280;20944;47.048;15.390;2023-04-07T11:25:50;97086.78;;;14.04;23.55
12759;BME280;20944;47.048;15.390;2023-04-07T11:28:18;97174.53;;;14.41;25.64
12759;BME280;20944;47.048;15.390;2023-04-07T11:30:50;97084.75;;;13.58;26.41
12759;BME280;20944;47.048;15.390;2023-04-07T11:33:20;97179.72;;;14.08;27.35
12759;BME280;20944;47.048;15.390;2023-04-07T11:35:53;97177.00;;;14.10;25.16
12759;BME280;20944;47.048;15.390;2023-04-07T11:38:24;97166.72;;;14.22;25.95
12759;BME280;20944;47.048;15.390;2023-04-07T11:40:53;97158.31;;;14.31;25.51
12759;BME280;20944;47.048;15.390;2023-04-07T11:43:23;97172.16;;;14.71;25.80
12759;BME280;20944;47.048;15.390;2023-04-07T11:46:08;97165.34;;;15.00;25.44
12759;BME280;20944;47.048;15.390;2023-04-07T11:48:38;97143.81;;;15.08;25.65
12759;BME280;20944;47.048;15.390;2023-04-07T11:51:15;97120.50;;;15.00;24.36
12759;BME280;20944;47.048;15.390;2023-04-07T11:53:43;97148.81;;;15.46;26.37
12759;BME280;20944;47.048;15.390;2023-04-07T11:56:15;97154.66;;;15.68;25.66
12759;BME280;20944;47.048;15.390;2023-04-07T11:58:47;97151.22;;;15.82;24.86
12759;BME280;20944;47.048;15.390;2023-04-07T12:01:18;97159.31;;;15.95;25.62
12759;BME280;20944;47.048;15.390;2023-04-07T12:03:57;97160.06;;;16.12;24.93
12759;BME280;20944;47.048;15.390;2023-04-07T12:06:27;97157.66;;;16.24;25.49
12759;BME280;20944;47.048;15.390;2023-04-07T12:08:56;97154.22;;;16.22;24.32
12759;BME280;20944;47.048;15.390;2023-04-07T12:11:24;97128.16;;;16.15;24.88
12759;BME280;20944;47.048;15.390;2023-04-07T12:13:52;97154.91;;;16.55;25.26
12759;BME280;20944;47.048;15.390;2023-04-07T12:16:22;97119.00;;;16.51;24.40
12759;BME280;20944;47.048;15.390;2023-04-07T12:18:51;96983.19;;;15.79;25.53
12759;BME280;20944;47.048;15.390;2023-04-07T12:21:19;97147.31;;;17.08;24.52
12759;BME280;20944;47.048;15.390;2023-04-07T12:23:47;97140.81;;;16.99;23.48
12759;BME280;20944;47.048;15.390;2023-04-07T12:26:16;97137.91;;;17.04;22.45
12759;BME280;20944;47.048;15.390;2023-04-07T12:28:48;97134.56;;;17.00;23.69
12759;BME280;20944;47.048;15.390;2023-04-07T12:31:16;97138.16;;;16.99;23.27
12759;BME280;20944;47.048;15.390;2023-04-07T12:33:46;96982.34;;;15.93;25.17
12759;BME280;20944;47.048;15.390;2023-04-07T12:36:15;97132.66;;;16.74;25.62
12759;BME280;20944;47.048;15.390;2023-04-07T12:38:43;96999.28;;;16.05;24.03
12759;BME280;20944;47.048;15.390;2023-04-07T12:41:11;97126.53;;;16.73;24.50
12759;BME280;20944;47.048;15.390;2023-04-07T12:43:39;97123.94;;;16.71;23.98
12759;BME280;20944;47.048;15.390;2023-04-07T12:46:08;97081.59;;;16.57;24.18
12759;BME280;20944;47.048;15.390;2023-04-07T12:48:37;97033.09;;;15.84;22.84
12759;BME280;20944;47.048;15.390;2023-04-07T12:51:06;97126.78;;;16.08;26.11
12759;BME280;20944;47.048;15.390;2023-04-07T12:53:35;97132.44;;;16.02;23.43
12759;BME280;20944;47.048;15.390;2023-04-07T12:56:03;97124.75;;;16.13;25.40
12759;BME280;20944;47.048;15.390;2023-04-07T12:58:31;97115.00;;;16.44;25.66
12759;BME280;20944;47.048;15.390;2023-04-07T13:01:00;97109.50;;;16.77;23.98
12759;BME280;20944;47.048;15.390;2023-04-07T13:03:28;97117.19;;;17.10;23.43
12759;BME280;20944;47.048;15.390;2023-04-07T13:05:56;97112.72;;;17.25;24.04
12759;BME280;20944;47.048;15.390;2023-04-07T13:08:28;97113.66;;;17.24;23.33
12759;BME280;20944;47.048;15.390;2023-04-07T13:10:56;97091.38;;;16.85;22.19